Time,TemperatureF,DewpointF,PressureIn,WindDirection,WindDirectionDegrees,WindSpeedMPH,WindSpeedGustMPH,Humidity,HourlyPrecipIn,Conditions,Clouds,dailyrainin,SoftwareType,DateUTC
2013-08-20 00:02:00,79.7,64.1,29.92,SSE,167,3.0,4.0,59,0.00,,,0.00,WeatherCatV1.21B27,2013-08-20 05:02:00,
2013-08-20 00:07:00,80.0,63.4,29.92,SE,138,0.0,0.0,57,0.00,,,0.00,WeatherCatV1.21B27,2013-08-20 05:07:00,
2013-08-20 00:12:00,80.0,63.4,29.92,SE,138,0.0,0.0,57,0.00,,,0.00,WeatherCatV1.21B27,2013-08-20 05:12:00,
2013-08-20 00:17:00,80.0,63.9,29.92,SSE,161,0.0,1.0,58,0.00,,,0.00,WeatherCatV1.21B27,2013-08-20 05:17:00,
2013-08-20 00:22:00,79.9,63.8,29.92,SSE,168,1.0,2.0,58,0.00,,,0.00,WeatherCatV1.21B27,2013-08-20 05:22:00,
2013-08-20 00:27:00,79.9,63.8,29.92,South,191,0.0,0.0,58,0.00,,,0.00,WeatherCatV1.21B27,2013-08-20 05:27:00,
2013-08-20 00:32:00,79.8,63.7,29.92,SE,127,2.0,3.0,58,0.00,,,0.00,WeatherCatV1.21B27,2013-08-20 05:32:00,
2013-08-20 00:37:00,79.8,64.2,29.93,SSW,195,1.0,1.0,59,0.00,,,0.00,WeatherCatV1.21B27,2013-08-20 05:37:00,
2013-08-20 00:42:00,79.6,64.0,29.93,SE,136,2.0,5.0,59,0.00,,,0.00,WeatherCatV1.21B27,2013-08-20 05:42:00,
2013-08-20 00:47:00,79.6,64.0,29.93,WSW,241,1.0,1.0,59,0.00,,,0.00,WeatherCatV1.21B27,2013-08-20 05:47:00,
2013-08-20 00:52:00,79.4,64.3,29.93,SW,224,1.0,1.0,60,0.00,,,0.00,WeatherCatV1.21B27,2013-08-20 05:52:00,
2013-08-20 00:57:00,79.3,64.2,29.93,SW,224,0.0,1.0,60,0.00,,,0.00,WeatherCatV1.21B27,2013-08-20 05:57:00,
2013-08-20 01:02:00,79.1,64.5,29.93,SSW,212,0.0,1.0,61,0.00,,,0.00,WeatherCatV1.21B27,2013-08-20 06:02:00,
2013-08-20 01:07:00,78.8,64.2,29.93,WSW,238,0.0,1.0,61,0.00,,,0.00,WeatherCatV1.21B27,2013-08-20 06:07:00,
2013-08-20 01:12:00,78.8,64.7,29.93,South,188,1.0,2.0,62,0.00,,,0.00,WeatherCatV1.21B27,2013-08-20 06:12:00,
2013-08-20 01:17:00,78.7,64.6,29.93,South,191,0.0,0.0,62,0.00,,,0.00,WeatherCatV1.21B27,2013-08-20 06:17:00,
2013-08-20 01:22:00,78.4,64.7,29.93,SSW,204,0.0,1.0,63,0.00,,,0.00,WeatherCatV1.21B27,2013-08-20 06:22:00,
2013-08-20 01:27:00,78.1,64.9,29.93,SSW,204,0.0,0.0,64,0.00,,,0.00,WeatherCatV1.21B27,2013-08-20 06:27:00,
2013-08-20 01:32:00,77.7,65.0,29.93,SSW,204,0.0,0.0,65,0.00,,,0.00,WeatherCatV1.21B27,2013-08-20 06:32:00,
2013-08-20 01:37:00,77.4,65.1,29.93,SSW,204,0.0,0.0,66,0.00,,,0.00,WeatherCatV1.21B27,2013-08-20 06:37:00,
2013-08-20 01:42:00,77.1,65.3,29.93,SW,236,0.0,0.0,67,0.00,,,0.00,WeatherCatV1.21B27,2013-08-20 06:42:00,
2013-08-20 01:47:00,77.0,65.2,29.93,WSW,239,0.0,0.0,67,0.00,,,0.00,WeatherCatV1.21B27,2013-08-20 06:47:00,
2013-08-20 01:52:00,76.7,65.3,29.93,WSW,238,0.0,0.0,68,0.00,,,0.00,WeatherCatV1.21B27,2013-08-20 06:52:00,
2013-08-20 01:57:00,76.3,64.9,29.93,WSW,238,0.0,0.0,68,0.00,,,0.00,WeatherCatV1.21B27,2013-08-20 06:57:00,
2013-08-20 02:03:00,75.9,65.4,29.93,WSW,238,0.0,0.0,70,0.00,,,0.00,WeatherCatV1.21B27,2013-08-20 07:03:00,
2013-08-20 02:08:00,75.7,65.6,29.93,WSW,238,0.0,0.0,71,0.00,,,0.00,WeatherCatV1.21B27,2013-08-20 07:08:00,
2013-08-20 02:13:00,75.6,65.9,29.93,WSW,238,0.0,0.0,72,0.00,,,0.00,WeatherCatV1.21B27,2013-08-20 07:13:00,
2013-08-20 02:18:00,75.6,65.9,29.93,WSW,238,0.0,0.0,72,0.00,,,0.00,WeatherCatV1.21B27,2013-08-20 07:18:00,
2013-08-20 02:23:00,75.8,66.1,29.93,WSW,238,0.0,0.0,72,0.00,,,0.00,WeatherCatV1.21B27,2013-08-20 07:23:00,
2013-08-20 02:28:00,75.8,66.1,29.93,WSW,238,0.0,0.0,72,0.00,,,0.00,WeatherCatV1.21B27,2013-08-20 07:28:00,
2013-08-20 02:33:00,75.8,66.1,29.93,WSW,249,0.0,0.0,72,0.00,,,0.00,WeatherCatV1.21B27,2013-08-20 07:33:00,
2013-08-20 02:38:00,75.8,65.7,29.93,SW,231,0.0,0.0,71,0.00,,,0.00,WeatherCatV1.21B27,2013-08-20 07:38:00,
2013-08-20 02:43:00,75.7,65.6,29.93,SW,231,0.0,0.0,71,0.00,,,0.00,WeatherCatV1.21B27,2013-08-20 07:43:00,
2013-08-20 02:48:00,75.6,65.9,29.93,SW,231,0.0,0.0,72,0.00,,,0.00,WeatherCatV1.21B27,2013-08-20 07:48:00,
2013-08-20 02:53:00,75.4,66.1,29.92,SW,231,0.0,0.0,73,0.00,,,0.00,WeatherCatV1.21B27,2013-08-20 07:53:00,
2013-08-20 02:58:00,75.1,65.8,29.92,SW,231,0.0,0.0,73,0.00,,,0.00,WeatherCatV1.21B27,2013-08-20 07:58:00,
2013-08-20 03:03:00,75.2,66.3,29.92,WSW,245,0.0,0.0,74,0.00,,,0.00,WeatherCatV1.21B27,2013-08-20 08:03:00,
2013-08-20 03:08:00,75.1,65.8,29.92,WSW,245,0.0,0.0,73,0.00,,,0.00,WeatherCatV1.21B27,2013-08-20 08:08:00,
2013-08-20 03:14:00,75.1,66.2,29.92,WSW,247,0.0,0.0,74,0.00,,,0.00,WeatherCatV1.21B27,2013-08-20 08:14:00,
2013-08-20 03:18:00,74.8,65.9,29.92,WSW,248,0.0,0.0,74,0.00,,,0.00,WeatherCatV1.21B27,2013-08-20 08:18:00,
2013-08-20 03:23:00,74.7,66.2,29.93,WSW,248,0.0,0.0,75,0.00,,,0.00,WeatherCatV1.21B27,2013-08-20 08:23:00,
2013-08-20 03:29:00,74.2,65.4,29.93,WSW,248,0.0,0.0,74,0.00,,,0.00,WeatherCatV1.21B27,2013-08-20 08:29:00,
2013-08-20 03:34:00,73.6,65.2,29.93,WSW,248,0.0,0.0,75,0.00,,,0.00,WeatherCatV1.21B27,2013-08-20 08:34:00,
2013-08-20 03:39:00,73.1,65.4,29.93,WSW,248,0.0,0.0,77,0.00,,,0.00,WeatherCatV1.21B27,2013-08-20 08:39:00,
2013-08-20 03:44:00,72.7,65.1,29.93,WSW,248,0.0,0.0,77,0.00,,,0.00,WeatherCatV1.21B27,2013-08-20 08:44:00,
2013-08-20 03:49:00,72.3,65.0,29.93,WSW,248,0.0,0.0,78,0.00,,,0.00,WeatherCatV1.21B27,2013-08-20 08:49:00,
2013-08-20 03:54:00,72.0,65.1,29.93,WSW,248,0.0,0.0,79,0.00,,,0.00,WeatherCatV1.21B27,2013-08-20 08:54:00,
2013-08-20 03:59:00,71.7,64.8,29.93,WSW,248,0.0,0.0,79,0.00,,,0.00,WeatherCatV1.21B27,2013-08-20 08:59:00,
2013-08-20 04:04:00,71.5,64.6,29.93,WSW,248,0.0,0.0,79,0.00,,,0.00,WeatherCatV1.21B27,2013-08-20 09:04:00,
2013-08-20 04:09:00,71.3,64.8,29.93,WSW,248,0.0,0.0,80,0.00,,,0.00,WeatherCatV1.21B27,2013-08-20 09:09:00,
2013-08-20 04:14:00,71.2,64.7,29.92,WSW,248,0.0,0.0,80,0.00,,,0.00,WeatherCatV1.21B27,2013-08-20 09:14:00,
2013-08-20 04:19:00,71.0,64.5,29.92,WSW,248,0.0,0.0,80,0.00,,,0.00,WeatherCatV1.21B27,2013-08-20 09:19:00,
2013-08-20 04:24:00,70.9,64.4,29.92,WSW,248,0.0,0.0,80,0.00,,,0.00,WeatherCatV1.21B27,2013-08-20 09:24:00,
2013-08-20 04:29:00,70.7,64.2,29.92,WSW,249,0.0,0.0,80,0.00,,,0.00,WeatherCatV1.21B27,2013-08-20 09:29:00,
2013-08-20 04:34:00,70.5,64.4,29.92,WSW,248,0.0,0.0,81,0.00,,,0.00,WeatherCatV1.21B27,2013-08-20 09:34:00,
2013-08-20 04:39:00,70.5,64.4,29.93,WSW,249,0.0,0.0,81,0.00,,,0.00,WeatherCatV1.21B27,2013-08-20 09:39:00,
2013-08-20 04:44:00,70.3,64.2,29.93,WSW,249,0.0,0.0,81,0.00,,,0.00,WeatherCatV1.21B27,2013-08-20 09:44:00,
2013-08-20 04:49:00,69.7,63.6,29.93,WSW,249,0.0,0.0,81,0.00,,,0.00,WeatherCatV1.21B27,2013-08-20 09:49:00,
2013-08-20 04:55:00,69.5,64.1,29.92,WSW,248,0.0,0.0,83,0.00,,,0.00,WeatherCatV1.21B27,2013-08-20 09:55:00,
2013-08-20 05:00:00,69.5,64.1,29.93,WSW,248,0.0,0.0,83,0.00,,,0.00,WeatherCatV1.21B27,2013-08-20 10:00:00,
2013-08-20 05:05:00,69.4,64.3,29.93,WSW,249,0.0,0.0,84,0.00,,,0.00,WeatherCatV1.21B27,2013-08-20 10:05:00,
2013-08-20 05:10:00,69.4,64.3,29.93,WSW,249,0.0,0.0,84,0.00,,,0.00,WeatherCatV1.21B27,2013-08-20 10:10:00,
2013-08-20 05:15:00,69.3,64.2,29.92,WSW,249,0.0,0.0,84,0.00,,,0.00,WeatherCatV1.21B27,2013-08-20 10:15:00,
2013-08-20 05:20:00,69.1,64.1,29.93,WSW,248,0.0,0.0,84,0.00,,,0.00,WeatherCatV1.21B27,2013-08-20 10:20:00,
2013-08-20 05:25:00,68.9,63.9,29.93,WSW,248,0.0,0.0,84,0.00,,,0.00,WeatherCatV1.21B27,2013-08-20 10:25:00,
2013-08-20 05:30:00,68.6,63.6,29.93,WSW,248,0.0,0.0,84,0.00,,,0.00,WeatherCatV1.21B27,2013-08-20 10:30:00,
2013-08-20 05:35:00,68.4,63.4,29.93,WSW,248,0.0,0.0,84,0.00,,,0.00,WeatherCatV1.21B27,2013-08-20 10:35:00,
2013-08-20 05:40:00,68.2,63.8,29.93,WSW,248,0.0,0.0,86,0.00,,,0.00,WeatherCatV1.21B27,2013-08-20 10:40:00,
2013-08-20 05:45:00,68.1,63.8,29.93,WSW,248,0.0,0.0,86,0.00,,,0.00,WeatherCatV1.21B27,2013-08-20 10:45:00,
2013-08-20 05:50:00,68.2,63.8,29.93,WSW,249,0.0,0.0,86,0.00,,,0.00,WeatherCatV1.21B27,2013-08-20 10:50:00,
2013-08-20 05:55:00,68.2,63.8,29.93,WSW,248,0.0,0.0,86,0.00,,,0.00,WeatherCatV1.21B27,2013-08-20 10:55:00,
2013-08-20 06:00:00,68.0,63.7,29.93,WSW,249,0.0,0.0,86,0.00,,,0.00,WeatherCatV1.21B27,2013-08-20 11:00:00,
2013-08-20 06:05:00,67.9,63.9,29.93,WSW,249,0.0,0.0,87,0.00,,,0.00,WeatherCatV1.21B27,2013-08-20 11:05:00,
2013-08-20 06:10:00,67.8,63.8,29.93,WSW,249,0.0,0.0,87,0.00,,,0.00,WeatherCatV1.21B27,2013-08-20 11:10:00,
2013-08-20 06:15:00,67.6,63.3,29.93,WSW,249,0.0,0.0,86,0.00,,,0.00,WeatherCatV1.21B27,2013-08-20 11:15:00,
2013-08-20 06:20:00,67.4,63.4,29.93,WSW,249,0.0,0.0,87,0.00,,,0.00,WeatherCatV1.21B27,2013-08-20 11:20:00,
2013-08-20 06:25:00,67.3,63.6,29.93,WSW,249,0.0,0.0,88,0.00,,,0.00,WeatherCatV1.21B27,2013-08-20 11:25:00,
2013-08-20 06:30:00,67.1,63.4,29.93,WSW,249,0.0,0.0,88,0.00,,,0.00,WeatherCatV1.21B27,2013-08-20 11:30:00,
2013-08-20 06:36:00,66.8,62.8,29.93,WSW,249,0.0,0.0,87,0.00,,,0.00,WeatherCatV1.21B27,2013-08-20 11:36:00,
2013-08-20 06:41:00,66.7,63.7,29.93,WSW,249,0.0,0.0,90,0.00,,,0.00,WeatherCatV1.21B27,2013-08-20 11:41:00,
2013-08-20 06:46:00,66.7,64.0,29.93,WSW,249,0.0,0.0,91,0.00,,,0.00,WeatherCatV1.21B27,2013-08-20 11:46:00,
2013-08-20 06:51:00,67.0,64.0,29.93,WSW,248,0.0,0.0,90,0.00,,,0.00,WeatherCatV1.21B27,2013-08-20 11:51:00,
2013-08-20 06:56:00,67.1,63.7,29.94,WSW,248,0.0,0.0,89,0.00,,,0.00,WeatherCatV1.21B27,2013-08-20 11:56:00,
2013-08-20 07:01:00,66.9,63.2,29.94,WSW,248,0.0,0.0,88,0.00,,,0.00,WeatherCatV1.21B27,2013-08-20 12:01:00,
2013-08-20 07:06:00,66.8,63.1,29.94,WSW,248,0.0,0.0,88,0.00,,,0.00,WeatherCatV1.21B27,2013-08-20 12:06:00,
2013-08-20 07:11:00,66.7,63.0,29.94,WSW,249,0.0,0.0,88,0.00,,,0.00,WeatherCatV1.21B27,2013-08-20 12:11:00,
2013-08-20 07:16:00,66.6,63.2,29.94,WSW,248,0.0,0.0,89,0.00,,,0.00,WeatherCatV1.21B27,2013-08-20 12:16:00,
2013-08-20 07:21:00,66.6,63.6,29.94,WSW,249,0.0,0.0,90,0.00,,,0.00,WeatherCatV1.21B27,2013-08-20 12:21:00,
2013-08-20 07:26:00,66.7,63.3,29.94,WSW,248,0.0,0.0,89,0.00,,,0.00,WeatherCatV1.21B27,2013-08-20 12:26:00,
2013-08-20 07:31:00,66.7,63.3,29.94,WSW,249,0.0,0.0,89,0.00,,,0.00,WeatherCatV1.21B27,2013-08-20 12:31:00,
2013-08-20 07:36:00,66.7,63.3,29.95,WSW,248,0.0,0.0,89,0.00,,,0.00,WeatherCatV1.21B27,2013-08-20 12:36:00,
2013-08-20 07:41:00,66.9,63.9,29.95,WSW,248,0.0,0.0,90,0.00,,,0.00,WeatherCatV1.21B27,2013-08-20 12:41:00,
2013-08-20 07:46:00,67.1,64.1,29.95,WSW,248,0.0,0.0,90,0.00,,,0.00,WeatherCatV1.21B27,2013-08-20 12:46:00,
2013-08-20 07:51:00,67.5,64.5,29.95,WSW,248,0.0,0.0,90,0.00,,,0.00,WeatherCatV1.21B27,2013-08-20 12:51:00,
2013-08-20 07:56:00,68.2,64.8,29.95,WSW,248,0.0,0.0,89,0.00,,,0.00,WeatherCatV1.21B27,2013-08-20 12:56:00,
2013-08-20 08:01:00,69.2,65.5,29.95,WSW,249,0.0,0.0,88,0.00,,,0.00,WeatherCatV1.21B27,2013-08-20 13:01:00,
2013-08-20 08:06:00,69.8,65.8,29.95,WSW,248,0.0,0.0,87,0.00,,,0.00,WeatherCatV1.21B27,2013-08-20 13:06:00,
2013-08-20 08:11:00,70.4,66.3,29.96,WSW,248,0.0,0.0,87,0.00,,,0.00,WeatherCatV1.21B27,2013-08-20 13:11:00,
2013-08-20 08:16:00,71.8,66.7,29.96,WSW,248,0.0,0.0,84,0.00,,,0.00,WeatherCatV1.21B27,2013-08-20 13:16:00,
2013-08-20 08:21:00,73.3,67.1,29.96,WSW,245,0.0,0.0,81,0.00,,,0.00,WeatherCatV1.21B27,2013-08-20 13:21:00,
2013-08-20 08:27:00,74.2,67.6,29.96,SW,234,0.0,0.0,80,0.00,,,0.00,WeatherCatV1.21B27,2013-08-20 13:27:00,
2013-08-20 08:32:00,74.2,67.2,29.97,SW,234,0.0,0.0,79,0.00,,,0.00,WeatherCatV1.21B27,2013-08-20 13:32:00,
2013-08-20 08:37:00,74.4,67.1,29.97,SW,234,0.0,0.0,78,0.00,,,0.00,WeatherCatV1.21B27,2013-08-20 13:37:00,
2013-08-20 08:42:00,74.7,67.4,29.97,SW,225,0.0,0.0,78,0.00,,,0.00,WeatherCatV1.21B27,2013-08-20 13:42:00,
2013-08-20 08:47:00,75.0,67.7,29.97,SSW,193,0.0,0.0,78,0.00,,,0.00,WeatherCatV1.21B27,2013-08-20 13:47:00,
2013-08-20 08:52:00,75.2,67.5,29.97,SSW,195,0.0,0.0,77,0.00,,,0.00,WeatherCatV1.21B27,2013-08-20 13:52:00,
2013-08-20 08:57:00,75.6,67.5,29.97,SSW,199,0.0,0.0,76,0.00,,,0.00,WeatherCatV1.21B27,2013-08-20 13:57:00,
2013-08-20 09:02:00,76.2,68.1,29.97,SSW,198,0.0,0.0,76,0.00,,,0.00,WeatherCatV1.21B27,2013-08-20 14:02:00,
2013-08-20 09:07:00,76.8,67.5,29.97,South,188,0.0,0.0,73,0.00,,,0.00,WeatherCatV1.21B27,2013-08-20 14:07:00,
2013-08-20 09:12:00,77.5,68.1,29.97,SSE,152,0.0,0.0,73,0.00,,,0.00,WeatherCatV1.21B27,2013-08-20 14:12:00,
2013-08-20 09:17:00,78.3,68.5,29.97,South,191,0.0,2.0,72,0.00,,,0.00,WeatherCatV1.21B27,2013-08-20 14:17:00,
2013-08-20 09:22:00,79.2,69.0,29.97,South,184,0.0,0.0,71,0.00,,,0.00,WeatherCatV1.21B27,2013-08-20 14:22:00,
2013-08-20 09:27:00,80.0,68.9,29.97,SSW,201,0.0,0.0,69,0.00,,,0.00,WeatherCatV1.21B27,2013-08-20 14:27:00,
2013-08-20 09:32:00,80.7,69.1,29.97,South,184,0.0,0.0,68,0.00,,,0.00,WeatherCatV1.21B27,2013-08-20 14:32:00,
2013-08-20 09:37:00,81.8,68.4,29.97,South,187,0.0,0.0,64,0.00,,,0.00,WeatherCatV1.21B27,2013-08-20 14:37:00,
2013-08-20 09:42:00,82.6,68.2,29.97,South,176,0.0,0.0,62,0.00,,,0.00,WeatherCatV1.21B27,2013-08-20 14:42:00,
2013-08-20 09:47:00,83.3,69.4,29.97,South,188,0.0,0.0,63,0.00,,,0.00,WeatherCatV1.21B27,2013-08-20 14:47:00,
2013-08-20 09:52:00,83.9,68.0,29.97,South,185,0.0,0.0,59,0.00,,,0.00,WeatherCatV1.21B27,2013-08-20 14:52:00,
2013-08-20 09:57:00,84.5,68.6,29.97,South,181,0.0,0.0,59,0.00,,,0.00,WeatherCatV1.21B27,2013-08-20 14:57:00,
2013-08-20 10:02:00,85.3,67.8,29.97,South,188,0.0,0.0,56,0.00,,,0.00,WeatherCatV1.21B27,2013-08-20 15:02:00,
2013-08-20 10:07:00,86.0,66.3,29.97,SW,228,0.0,0.0,52,0.00,,,0.00,WeatherCatV1.21B27,2013-08-20 15:07:00,
2013-08-20 10:12:00,87.1,65.0,29.97,WSW,238,0.0,0.0,48,0.00,,,0.00,WeatherCatV1.21B27,2013-08-20 15:12:00,
2013-08-20 10:17:00,88.3,65.5,29.97,South,177,0.0,0.0,47,0.00,,,0.00,WeatherCatV1.21B27,2013-08-20 15:17:00,
2013-08-20 10:22:00,89.1,66.2,29.97,South,170,0.0,0.0,47,0.00,,,0.00,WeatherCatV1.21B27,2013-08-20 15:22:00,
2013-08-20 10:27:00,89.1,65.6,29.97,SSW,197,0.0,0.0,46,0.00,,,0.00,WeatherCatV1.21B27,2013-08-20 15:27:00,
2013-08-20 10:32:00,89.8,65.6,29.97,South,174,0.0,0.0,45,0.00,,,0.00,WeatherCatV1.21B27,2013-08-20 15:32:00,
2013-08-20 10:37:00,89.9,63.7,29.97,South,191,1.0,2.0,42,0.00,,,0.00,WeatherCatV1.21B27,2013-08-20 15:37:00,
2013-08-20 10:42:00,90.5,64.9,29.97,SSW,193,0.0,2.0,43,0.00,,,0.00,WeatherCatV1.21B27,2013-08-20 15:42:00,
2013-08-20 10:48:00,90.7,62.3,29.98,SSW,204,1.0,4.0,39,0.00,,,0.00,WeatherCatV1.21B27,2013-08-20 15:48:00,
2013-08-20 10:53:00,90.6,62.9,29.97,ESE,116,2.0,2.0,40,0.00,,,0.00,WeatherCatV1.21B27,2013-08-20 15:53:00,
2013-08-20 10:58:00,90.9,62.5,29.97,ESE,110,3.0,4.0,39,0.00,,,0.00,WeatherCatV1.21B27,2013-08-20 15:58:00,
2013-08-20 11:03:00,91.2,63.5,29.97,SE,139,3.0,4.0,40,0.00,,,0.00,WeatherCatV1.21B27,2013-08-20 16:03:00,
2013-08-20 11:08:00,91.4,62.9,29.97,SSE,160,2.0,3.0,39,0.00,,,0.00,WeatherCatV1.21B27,2013-08-20 16:08:00,
2013-08-20 11:13:00,91.6,62.3,29.97,SE,141,1.0,5.0,38,0.00,,,0.00,WeatherCatV1.21B27,2013-08-20 16:13:00,
2013-08-20 11:18:00,92.0,62.7,29.98,ESE,105,2.0,3.0,38,0.00,,,0.00,WeatherCatV1.21B27,2013-08-20 16:18:00,
2013-08-20 11:23:00,92.6,62.5,29.97,ESE,116,3.0,3.0,37,0.00,,,0.00,WeatherCatV1.21B27,2013-08-20 16:23:00,
2013-08-20 11:28:00,92.6,62.5,29.97,SSE,153,0.0,5.0,37,0.00,,,0.00,WeatherCatV1.21B27,2013-08-20 16:28:00,
2013-08-20 11:33:00,93.4,61.6,29.97,SSE,157,2.0,3.0,35,0.00,,,0.00,WeatherCatV1.21B27,2013-08-20 16:33:00,
2013-08-20 11:38:00,93.5,62.5,29.97,SSW,194,1.0,5.0,36,0.00,,,0.00,WeatherCatV1.21B27,2013-08-20 16:38:00,
2013-08-20 11:43:00,93.9,62.8,29.97,SE,134,2.0,3.0,36,0.00,,,0.00,WeatherCatV1.21B27,2013-08-20 16:43:00,
2013-08-20 11:48:00,93.8,62.8,29.97,East,82,4.0,5.0,36,0.00,,,0.00,WeatherCatV1.21B27,2013-08-20 16:48:00,
2013-08-20 11:53:00,94.5,61.7,29.97,South,185,1.0,4.0,34,0.00,,,0.00,WeatherCatV1.21B27,2013-08-20 16:53:00,
2013-08-20 11:58:00,94.9,62.1,29.97,WSW,240,1.0,3.0,34,0.00,,,0.00,WeatherCatV1.21B27,2013-08-20 16:58:00,
2013-08-20 12:03:00,94.7,61.1,29.97,ESE,105,2.0,3.0,33,0.00,,,0.00,WeatherCatV1.21B27,2013-08-20 17:03:00,
2013-08-20 12:08:00,94.9,61.2,29.97,ESE,123,3.0,4.0,33,0.00,,,0.00,WeatherCatV1.21B27,2013-08-20 17:08:00,
2013-08-20 12:13:00,94.8,62.0,29.97,ESE,108,2.0,2.0,34,0.00,,,0.00,WeatherCatV1.21B27,2013-08-20 17:13:00,
2013-08-20 12:18:00,94.9,62.1,29.96,ESE,115,3.0,7.0,34,0.00,,,0.00,WeatherCatV1.21B27,2013-08-20 17:18:00,
2013-08-20 12:23:00,95.2,60.6,29.96,SE,143,2.0,4.0,32,0.00,,,0.00,WeatherCatV1.21B27,2013-08-20 17:23:00,
2013-08-20 12:28:00,95.5,62.6,29.96,South,176,1.0,3.0,34,0.00,,,0.00,WeatherCatV1.21B27,2013-08-20 17:28:00,
2013-08-20 12:33:00,95.1,63.1,29.96,SSE,162,2.0,3.0,35,0.00,,,0.00,WeatherCatV1.21B27,2013-08-20 17:33:00,
2013-08-20 12:39:00,94.8,62.8,29.95,ESE,110,3.0,5.0,35,0.00,,,0.00,WeatherCatV1.21B27,2013-08-20 17:39:00,
2013-08-20 12:44:00,95.2,62.3,29.95,SSE,149,3.0,4.0,34,0.00,,,0.00,WeatherCatV1.21B27,2013-08-20 17:44:00,
2013-08-20 12:49:00,95.1,62.3,29.95,SSE,162,4.0,4.0,34,0.00,,,0.00,WeatherCatV1.21B27,2013-08-20 17:49:00,
2013-08-20 12:54:00,95.2,61.5,29.95,SE,126,4.0,4.0,33,0.00,,,0.00,WeatherCatV1.21B27,2013-08-20 17:54:00,
2013-08-20 12:59:00,95.0,62.2,29.95,SSE,147,2.0,5.0,34,0.00,,,0.00,WeatherCatV1.21B27,2013-08-20 17:59:00,
2013-08-20 13:04:00,95.3,61.6,29.95,SE,127,2.0,6.0,33,0.00,,,0.00,WeatherCatV1.21B27,2013-08-20 18:04:00,
2013-08-20 13:09:00,94.7,59.3,29.95,SW,214,1.0,3.0,31,0.00,,,0.00,WeatherCatV1.21B27,2013-08-20 18:09:00,
2013-08-20 13:14:00,94.8,60.3,29.95,SE,144,2.0,4.0,32,0.00,,,0.00,WeatherCatV1.21B27,2013-08-20 18:14:00,
2013-08-20 13:19:00,96.0,61.3,29.95,ESE,110,4.0,7.0,32,0.00,,,0.00,WeatherCatV1.21B27,2013-08-20 18:19:00,
2013-08-20 13:24:00,96.5,60.9,29.95,SSE,150,4.0,6.0,31,0.00,,,0.00,WeatherCatV1.21B27,2013-08-20 18:24:00,
2013-08-20 13:29:00,96.7,61.0,29.95,SE,126,2.0,4.0,31,0.00,,,0.00,WeatherCatV1.21B27,2013-08-20 18:29:00,
2013-08-20 13:34:00,95.1,60.5,29.95,ESE,115,2.0,4.0,32,0.00,,,0.00,WeatherCatV1.21B27,2013-08-20 18:34:00,
2013-08-20 13:39:00,95.3,62.4,29.94,SE,143,4.0,4.0,34,0.00,,,0.00,WeatherCatV1.21B27,2013-08-20 18:39:00,
2013-08-20 13:44:00,96.1,60.5,29.94,East,99,3.0,3.0,31,0.00,,,0.00,WeatherCatV1.21B27,2013-08-20 18:44:00,
2013-08-20 13:49:00,97.6,62.7,29.94,SE,126,2.0,7.0,32,0.00,,,0.00,WeatherCatV1.21B27,2013-08-20 18:49:00,
2013-08-20 13:54:00,98.2,61.4,29.94,ENE,59,2.0,4.0,30,0.00,,,0.00,WeatherCatV1.21B27,2013-08-20 18:54:00,
2013-08-20 13:59:00,97.7,60.0,29.93,ESE,113,5.0,5.0,29,0.00,,,0.00,WeatherCatV1.21B27,2013-08-20 18:59:00,
2013-08-20 14:04:00,97.7,60.0,29.93,South,186,0.0,4.0,29,0.00,,,0.00,WeatherCatV1.21B27,2013-08-20 19:04:00,
2013-08-20 14:09:00,98.9,60.0,29.93,SE,130,5.0,7.0,28,0.00,,,0.00,WeatherCatV1.21B27,2013-08-20 19:09:00,
2013-08-20 14:15:00,98.6,59.8,29.93,South,185,3.0,7.0,28,0.00,,,0.00,WeatherCatV1.21B27,2013-08-20 19:15:00,
2013-08-20 14:20:00,98.5,60.7,29.93,South,181,3.0,3.0,29,0.00,,,0.00,WeatherCatV1.21B27,2013-08-20 19:20:00,
2013-08-20 14:25:00,99.4,61.5,29.93,SSE,168,4.0,6.0,29,0.00,,,0.00,WeatherCatV1.21B27,2013-08-20 19:25:00,
2013-08-20 14:30:00,98.4,59.6,29.93,SSE,168,1.0,4.0,28,0.00,,,0.00,WeatherCatV1.21B27,2013-08-20 19:30:00,
2013-08-20 14:35:00,96.7,59.2,29.93,SSW,192,2.0,2.0,29,0.00,,,0.00,WeatherCatV1.21B27,2013-08-20 19:35:00,
2013-08-20 14:40:00,95.9,59.4,29.93,SW,228,2.0,6.0,30,0.00,,,0.00,WeatherCatV1.21B27,2013-08-20 19:40:00,
2013-08-20 14:45:00,95.2,59.7,29.93,SE,144,2.0,3.0,31,0.00,,,0.00,WeatherCatV1.21B27,2013-08-20 19:45:00,
2013-08-20 14:50:00,95.3,59.8,29.93,South,184,4.0,4.0,31,0.00,,,0.00,WeatherCatV1.21B27,2013-08-20 19:50:00,
2013-08-20 14:55:00,97.2,59.6,29.92,South,184,5.0,5.0,29,0.00,,,0.00,WeatherCatV1.21B27,2013-08-20 19:55:00,
2013-08-20 15:00:00,98.2,59.4,29.92,SSE,159,2.0,3.0,28,0.00,,,0.00,WeatherCatV1.21B27,2013-08-20 20:00:00,
2013-08-20 15:05:00,97.1,58.5,29.92,ESE,108,4.0,4.0,28,0.00,,,0.00,WeatherCatV1.21B27,2013-08-20 20:05:00,
2013-08-20 15:10:00,95.4,59.0,29.92,SE,143,2.0,3.0,30,0.00,,,0.00,WeatherCatV1.21B27,2013-08-20 20:10:00,
2013-08-20 15:15:00,95.5,59.1,29.92,ENE,62,5.0,5.0,30,0.00,,,0.00,WeatherCatV1.21B27,2013-08-20 20:15:00,
2013-08-20 15:20:00,96.8,59.2,29.91,SE,139,3.0,3.0,29,0.00,,,0.00,WeatherCatV1.21B27,2013-08-20 20:20:00,
2013-08-20 15:25:00,97.5,57.8,29.91,East,90,2.0,4.0,27,0.00,,,0.00,WeatherCatV1.21B27,2013-08-20 20:25:00,
2013-08-20 15:30:00,96.2,58.7,29.91,SE,136,0.0,3.0,29,0.00,,,0.00,WeatherCatV1.21B27,2013-08-20 20:30:00,
2013-08-20 15:35:00,95.9,57.5,29.91,ESE,110,1.0,3.0,28,0.00,,,0.00,WeatherCatV1.21B27,2013-08-20 20:35:00,
2013-08-20 15:40:00,97.8,60.1,29.90,ENE,75,1.0,4.0,29,0.00,,,0.00,WeatherCatV1.21B27,2013-08-20 20:40:00,
2013-08-20 15:45:00,98.1,58.3,29.90,SSW,196,2.0,4.0,27,0.00,,,0.00,WeatherCatV1.21B27,2013-08-20 20:45:00,
2013-08-20 15:50:00,97.3,57.7,29.90,East,90,2.0,3.0,27,0.00,,,0.00,WeatherCatV1.21B27,2013-08-20 20:50:00,
2013-08-20 15:55:00,97.4,56.7,29.90,South,171,3.0,4.0,26,0.00,,,0.00,WeatherCatV1.21B27,2013-08-20 20:55:00,
2013-08-20 16:00:00,97.9,57.1,29.90,SSE,158,4.0,5.0,26,0.00,,,0.00,WeatherCatV1.21B27,2013-08-20 21:00:00,
2013-08-20 16:05:00,98.3,57.5,29.89,SSW,194,2.0,3.0,26,0.00,,,0.00,WeatherCatV1.21B27,2013-08-20 21:05:00,
2013-08-20 16:11:00,99.3,58.3,29.89,NE,45,2.0,3.0,26,0.00,,,0.00,WeatherCatV1.21B27,2013-08-20 21:11:00,
2013-08-20 16:16:00,99.2,58.2,29.89,SSE,155,3.0,5.0,26,0.00,,,0.00,WeatherCatV1.21B27,2013-08-20 21:16:00,
2013-08-20 16:21:00,99.5,57.4,29.89,South,172,4.0,5.0,25,0.00,,,0.00,WeatherCatV1.21B27,2013-08-20 21:21:00,
2013-08-20 16:26:00,100.0,57.8,29.88,SW,221,5.0,5.0,25,0.00,,,0.00,WeatherCatV1.21B27,2013-08-20 21:26:00,
2013-08-20 16:31:00,99.8,58.7,29.88,SSE,162,2.0,3.0,26,0.00,,,0.00,WeatherCatV1.21B27,2013-08-20 21:31:00,
2013-08-20 16:36:00,99.1,57.0,29.88,South,177,1.0,4.0,25,0.00,,,0.00,WeatherCatV1.21B27,2013-08-20 21:36:00,
2013-08-20 16:41:00,98.9,58.0,29.88,SE,134,2.0,4.0,26,0.00,,,0.00,WeatherCatV1.21B27,2013-08-20 21:41:00,
2013-08-20 16:46:00,98.5,57.6,29.88,SE,134,3.0,5.0,26,0.00,,,0.00,WeatherCatV1.21B27,2013-08-20 21:46:00,
2013-08-20 16:51:00,98.2,58.4,29.88,SSE,156,2.0,5.0,27,0.00,,,0.00,WeatherCatV1.21B27,2013-08-20 21:51:00,
2013-08-20 16:56:00,97.8,58.1,29.88,SSE,155,1.0,3.0,27,0.00,,,0.00,WeatherCatV1.21B27,2013-08-20 21:56:00,
2013-08-20 17:01:00,98.2,59.4,29.88,East,79,2.0,2.0,28,0.00,,,0.00,WeatherCatV1.21B27,2013-08-20 22:01:00,
2013-08-20 17:06:00,97.9,58.2,29.88,South,179,2.0,2.0,27,0.00,,,0.00,WeatherCatV1.21B27,2013-08-20 22:06:00,
2013-08-20 17:11:00,97.2,57.6,29.88,South,183,1.0,4.0,27,0.00,,,0.00,WeatherCatV1.21B27,2013-08-20 22:11:00,
2013-08-20 17:16:00,96.7,58.2,29.87,South,186,1.0,2.0,28,0.00,,,0.00,WeatherCatV1.21B27,2013-08-20 22:16:00,
2013-08-20 17:21:00,96.9,58.3,29.87,South,174,2.0,4.0,28,0.00,,,0.00,WeatherCatV1.21B27,2013-08-20 22:21:00,
2013-08-20 17:26:00,96.6,60.0,29.87,South,172,4.0,5.0,30,0.00,,,0.00,WeatherCatV1.21B27,2013-08-20 22:26:00,
2013-08-20 17:31:00,96.7,60.1,29.87,SE,145,1.0,6.0,30,0.00,,,0.00,WeatherCatV1.21B27,2013-08-20 22:31:00,
2013-08-20 17:36:00,97.0,60.4,29.87,SSE,153,4.0,5.0,30,0.00,,,0.00,WeatherCatV1.21B27,2013-08-20 22:36:00,
2013-08-20 17:41:00,97.1,61.4,29.87,SSE,148,3.0,4.0,31,0.00,,,0.00,WeatherCatV1.21B27,2013-08-20 22:41:00,
2013-08-20 17:46:00,96.4,61.7,29.87,SW,221,1.0,3.0,32,0.00,,,0.00,WeatherCatV1.21B27,2013-08-20 22:46:00,
2013-08-20 17:51:00,95.5,61.8,29.87,SE,125,3.0,3.0,33,0.00,,,0.00,WeatherCatV1.21B27,2013-08-20 22:51:00,
2013-08-20 17:57:00,95.0,61.3,29.86,SSE,161,2.0,4.0,33,0.00,,,0.00,WeatherCatV1.21B27,2013-08-20 22:57:00,
2013-08-20 18:02:00,95.2,62.3,29.86,ESE,111,2.0,4.0,34,0.00,,,0.00,WeatherCatV1.21B27,2013-08-20 23:02:00,
2013-08-20 18:07:00,94.8,64.4,29.87,SE,136,3.0,5.0,37,0.00,,,0.00,WeatherCatV1.21B27,2013-08-20 23:07:00,
2013-08-20 18:12:00,94.0,64.5,29.87,ESE,115,2.0,5.0,38,0.00,,,0.00,WeatherCatV1.21B27,2013-08-20 23:12:00,
2013-08-20 18:17:00,93.6,64.9,29.87,ESE,112,5.0,7.0,39,0.00,,,0.00,WeatherCatV1.21B27,2013-08-20 23:17:00,
2013-08-20 18:22:00,92.9,64.2,29.87,ESE,122,2.0,5.0,39,0.00,,,0.00,WeatherCatV1.21B27,2013-08-20 23:22:00,
2013-08-20 18:27:00,92.4,64.5,29.87,SSE,150,3.0,4.0,40,0.00,,,0.00,WeatherCatV1.21B27,2013-08-20 23:27:00,
2013-08-20 18:32:00,92.1,64.3,29.87,ESE,115,0.0,6.0,40,0.00,,,0.00,WeatherCatV1.21B27,2013-08-20 23:32:00,
2013-08-20 18:37:00,91.8,64.0,29.87,SE,135,4.0,6.0,40,0.00,,,0.00,WeatherCatV1.21B27,2013-08-20 23:37:00,
2013-08-20 18:42:00,91.4,63.6,29.87,SE,144,5.0,6.0,40,0.00,,,0.00,WeatherCatV1.21B27,2013-08-20 23:42:00,
2013-08-20 18:47:00,91.0,64.7,29.87,NE,36,3.0,8.0,42,0.00,,,0.00,WeatherCatV1.21B27,2013-08-20 23:47:00,
2013-08-20 18:52:00,90.5,64.9,29.87,ESE,111,4.0,6.0,43,0.00,,,0.00,WeatherCatV1.21B27,2013-08-20 23:52:00,
2013-08-20 18:57:00,90.1,64.5,29.88,SE,137,3.0,4.0,43,0.00,,,0.00,WeatherCatV1.21B27,2013-08-20 23:57:00,
2013-08-20 19:02:00,89.8,64.9,29.88,SE,134,3.0,5.0,44,0.00,,,0.00,WeatherCatV1.21B27,2013-08-21 00:02:00,
2013-08-20 19:07:00,89.5,64.7,29.88,South,183,2.0,6.0,44,0.00,,,0.00,WeatherCatV1.21B27,2013-08-21 00:07:00,
2013-08-20 19:12:00,89.3,64.5,29.88,South,184,2.0,5.0,44,0.00,,,0.00,WeatherCatV1.21B27,2013-08-21 00:12:00,
2013-08-20 19:18:00,89.1,64.9,29.88,South,189,1.0,2.0,45,0.00,,,0.00,WeatherCatV1.21B27,2013-08-21 00:18:00,
2013-08-20 19:22:00,88.9,64.8,29.88,SE,143,3.0,5.0,45,0.00,,,0.00,WeatherCatV1.21B27,2013-08-21 00:22:00,
2013-08-20 19:28:00,88.7,64.6,29.88,South,182,2.0,2.0,45,0.00,,,0.00,WeatherCatV1.21B27,2013-08-21 00:28:00,
2013-08-20 19:33:00,88.5,65.0,29.88,SSE,162,2.0,2.0,46,0.00,,,0.00,WeatherCatV1.21B27,2013-08-21 00:33:00,
2013-08-20 19:38:00,88.3,64.9,29.88,SE,140,2.0,2.0,46,0.00,,,0.00,WeatherCatV1.21B27,2013-08-21 00:38:00,
2013-08-20 19:43:00,88.1,64.7,29.88,ESE,113,2.0,4.0,46,0.00,,,0.00,WeatherCatV1.21B27,2013-08-21 00:43:00,
2013-08-20 19:48:00,87.8,65.0,29.88,SSE,155,1.0,1.0,47,0.00,,,0.00,WeatherCatV1.21B27,2013-08-21 00:48:00,
2013-08-20 19:53:00,87.6,64.8,29.89,SE,143,1.0,2.0,47,0.00,,,0.00,WeatherCatV1.21B27,2013-08-21 00:53:00,
2013-08-20 19:58:00,87.4,65.3,29.89,SW,214,3.0,4.0,48,0.00,,,0.00,WeatherCatV1.21B27,2013-08-21 00:58:00,
2013-08-20 20:03:00,87.3,65.2,29.89,SE,139,3.0,4.0,48,0.00,,,0.00,WeatherCatV1.21B27,2013-08-21 01:03:00,
2013-08-20 20:08:00,87.1,65.0,29.89,South,176,2.0,6.0,48,0.00,,,0.00,WeatherCatV1.21B27,2013-08-21 01:08:00,
2013-08-20 20:13:00,86.8,65.3,29.89,South,176,6.0,6.0,49,0.00,,,0.00,WeatherCatV1.21B27,2013-08-21 01:13:00,
2013-08-20 20:18:00,86.7,65.8,29.89,ESE,119,2.0,4.0,50,0.00,,,0.00,WeatherCatV1.21B27,2013-08-21 01:18:00,
2013-08-20 20:19:00,86.6,65.7,29.89,SE,124,1.0,3.0,50,0.00,,,0.00,WeatherCatV1.21B27,2013-08-21 01:19:00,
2013-08-20 20:24:00,86.3,66.0,29.89,SSW,193,1.0,3.0,51,0.00,,,0.00,WeatherCatV1.21B27,2013-08-21 01:24:00,
2013-08-20 20:30:00,86.1,65.8,29.89,West,264,3.0,3.0,51,0.00,,,0.00,WeatherCatV1.21B27,2013-08-21 01:30:00,
2013-08-20 20:35:00,85.9,66.2,29.90,ESE,121,4.0,8.0,52,0.00,,,0.00,WeatherCatV1.21B27,2013-08-21 01:35:00,
2013-08-20 20:40:00,85.6,66.5,29.90,East,98,5.0,8.0,53,0.00,,,0.00,WeatherCatV1.21B27,2013-08-21 01:40:00,
2013-08-20 20:45:00,85.4,66.3,29.90,SE,141,4.0,5.0,53,0.00,,,0.00,WeatherCatV1.21B27,2013-08-21 01:45:00,
2013-08-20 20:50:00,85.1,66.6,29.90,SE,145,2.0,6.0,54,0.00,,,0.00,WeatherCatV1.21B27,2013-08-21 01:50:00,
2013-08-20 20:55:00,84.9,66.4,29.90,SSE,160,2.0,3.0,54,0.00,,,0.00,WeatherCatV1.21B27,2013-08-21 01:55:00,
2013-08-20 21:00:00,84.7,66.7,29.90,ESE,109,3.0,4.0,55,0.00,,,0.00,WeatherCatV1.21B27,2013-08-21 02:00:00,
2013-08-20 21:05:00,84.4,67.5,29.91,SE,146,4.0,4.0,57,0.00,,,0.00,WeatherCatV1.21B27,2013-08-21 02:05:00,
2013-08-20 21:10:00,84.1,67.2,29.91,WSW,254,2.0,6.0,57,0.00,,,0.00,WeatherCatV1.21B27,2013-08-21 02:10:00,
2013-08-20 21:15:00,83.9,67.0,29.91,ESE,116,3.0,6.0,57,0.00,,,0.00,WeatherCatV1.21B27,2013-08-21 02:15:00,
2013-08-20 21:20:00,83.6,66.7,29.91,SSE,163,3.0,5.0,57,0.00,,,0.00,WeatherCatV1.21B27,2013-08-21 02:20:00,
2013-08-20 21:25:00,83.4,67.0,29.92,ESE,117,3.0,4.0,58,0.00,,,0.00,WeatherCatV1.21B27,2013-08-21 02:25:00,
2013-08-20 21:30:00,83.2,66.9,29.92,SE,133,2.0,4.0,58,0.00,,,0.00,WeatherCatV1.21B27,2013-08-21 02:30:00,
2013-08-20 21:35:00,83.0,66.7,29.92,SSW,203,2.0,3.0,58,0.00,,,0.00,WeatherCatV1.21B27,2013-08-21 02:35:00,
2013-08-20 21:40:00,82.8,67.0,29.92,SW,221,1.0,6.0,59,0.00,,,0.00,WeatherCatV1.21B27,2013-08-21 02:40:00,
2013-08-20 21:45:00,82.6,66.8,29.92,SE,143,3.0,4.0,59,0.00,,,0.00,WeatherCatV1.21B27,2013-08-21 02:45:00,
2013-08-20 21:50:00,82.5,67.2,29.93,SE,125,2.0,4.0,60,0.00,,,0.00,WeatherCatV1.21B27,2013-08-21 02:50:00,
2013-08-20 21:55:00,82.3,67.0,29.93,SE,141,1.0,4.0,60,0.00,,,0.00,WeatherCatV1.21B27,2013-08-21 02:55:00,
2013-08-20 22:01:00,82.1,67.3,29.93,ESE,113,4.0,5.0,61,0.00,,,0.00,WeatherCatV1.21B27,2013-08-21 03:01:00,
2013-08-20 22:06:00,81.9,67.6,29.93,SE,139,2.0,7.0,62,0.00,,,0.00,WeatherCatV1.21B27,2013-08-21 03:06:00,
2013-08-20 22:11:00,81.8,67.5,29.94,SE,139,2.0,3.0,62,0.00,,,0.00,WeatherCatV1.21B27,2013-08-21 03:11:00,
2013-08-20 22:16:00,81.6,67.8,29.94,SE,146,1.0,2.0,63,0.00,,,0.00,WeatherCatV1.21B27,2013-08-21 03:16:00,
2013-08-20 22:21:00,81.4,67.6,29.94,SSE,167,2.0,2.0,63,0.00,,,0.00,WeatherCatV1.21B27,2013-08-21 03:21:00,
2013-08-20 22:26:00,81.3,67.9,29.94,SSE,148,2.0,4.0,64,0.00,,,0.00,WeatherCatV1.21B27,2013-08-21 03:26:00,
2013-08-20 22:31:00,81.2,67.8,29.94,ESE,115,3.0,4.0,64,0.00,,,0.00,WeatherCatV1.21B27,2013-08-21 03:31:00,
2013-08-20 22:36:00,81.0,67.7,29.94,SE,130,3.0,3.0,64,0.00,,,0.00,WeatherCatV1.21B27,2013-08-21 03:36:00,
2013-08-20 22:41:00,80.9,68.0,29.94,SSE,147,0.0,1.0,65,0.00,,,0.00,WeatherCatV1.21B27,2013-08-21 03:41:00,
2013-08-20 22:46:00,80.7,67.8,29.95,SE,145,1.0,2.0,65,0.00,,,0.00,WeatherCatV1.21B27,2013-08-21 03:46:00,
2013-08-20 22:51:00,80.6,67.7,29.95,SE,146,0.0,1.0,65,0.00,,,0.00,WeatherCatV1.21B27,2013-08-21 03:51:00,
2013-08-20 22:56:00,80.4,67.5,29.95,SSE,160,1.0,1.0,65,0.00,,,0.00,WeatherCatV1.21B27,2013-08-21 03:56:00,
2013-08-20 23:01:00,80.3,67.9,29.95,South,188,0.0,0.0,66,0.00,,,0.00,WeatherCatV1.21B27,2013-08-21 04:01:00,
2013-08-20 23:06:00,80.1,68.1,29.95,SE,144,0.0,0.0,67,0.00,,,0.00,WeatherCatV1.21B27,2013-08-21 04:06:00,
2013-08-20 23:11:00,79.9,67.9,29.95,SSW,198,0.0,0.0,67,0.00,,,0.00,WeatherCatV1.21B27,2013-08-21 04:11:00,
2013-08-20 23:16:00,79.6,67.7,29.95,SSW,198,0.0,0.0,67,0.00,,,0.00,WeatherCatV1.21B27,2013-08-21 04:16:00,
2013-08-20 23:21:00,79.2,67.7,29.95,SSW,197,0.0,0.0,68,0.00,,,0.00,WeatherCatV1.21B27,2013-08-21 04:21:00,
2013-08-20 23:26:00,79.1,67.6,29.95,South,188,0.0,0.0,68,0.00,,,0.00,WeatherCatV1.21B27,2013-08-21 04:26:00,
2013-08-20 23:31:00,79.0,67.5,29.95,South,169,0.0,0.0,68,0.00,,,0.00,WeatherCatV1.21B27,2013-08-21 04:31:00,
2013-08-20 23:36:00,78.9,67.8,29.95,South,184,0.0,0.0,69,0.00,,,0.00,WeatherCatV1.21B27,2013-08-21 04:36:00,
2013-08-20 23:41:00,78.9,67.8,29.95,SSE,154,0.0,2.0,69,0.00,,,0.00,WeatherCatV1.21B27,2013-08-21 04:41:00,
2013-08-20 23:46:00,78.9,67.8,29.95,SW,232,0.0,1.0,69,0.00,,,0.00,WeatherCatV1.21B27,2013-08-21 04:46:00,
2013-08-20 23:51:00,78.7,68.1,29.95,SW,218,0.0,0.0,70,0.00,,,0.00,WeatherCatV1.21B27,2013-08-21 04:51:00,
2013-08-20 23:56:00,78.5,68.3,29.95,SSW,203,0.0,0.0,71,0.00,,,0.00,WeatherCatV1.21B27,2013-08-21 04:56:00,